createdAt,value
2016-04-11T00:00:22.740Z,95.89
2016-04-11T00:01:22.679Z,95.79
2016-04-11T00:02:22.604Z,95.79
2016-04-11T00:03:22.576Z,96.08
2016-04-11T00:04:22.515Z,95.89
2016-04-11T00:05:22.456Z,95.51
2016-04-11T00:06:22.395Z,96.08
2016-04-11T00:07:22.337Z,95.22
2016-04-11T00:08:22.276Z,95.12
2016-04-11T00:09:22.233Z,95.12
2016-04-11T00:10:22.173Z,95.03
2016-04-11T00:11:22.114Z,95.31
2016-04-11T00:12:22.069Z,95.22
2016-04-11T00:13:22.008Z,95.51
2016-04-11T00:14:21.964Z,95.89
2016-04-11T00:15:21.921Z,95.84
2016-04-11T00:16:21.846Z,95.36
2016-04-11T00:17:21.786Z,95.31
2016-04-11T00:18:21.726Z,95.65
2016-04-11T00:19:21.682Z,95.65
2016-04-11T00:20:21.623Z,96.22
2016-04-11T00:21:21.562Z,95.74
2016-04-11T00:22:21.534Z,95.51
2016-04-11T00:23:21.459Z,95.89
2016-04-11T00:24:21.399Z,95.7
2016-04-11T00:25:21.355Z,95.41
2016-04-11T00:26:21.294Z,95.31
2016-04-11T00:27:21.235Z,95.41
2016-04-11T00:28:21.191Z,95.79
2016-04-11T00:29:21.131Z,95.98
2016-04-11T00:30:21.071Z,95.79
2016-04-11T00:31:21.027Z,95.79
2016-04-11T00:32:20.999Z,95.41
2016-04-11T00:33:20.917Z,95.31
2016-04-11T00:34:20.880Z,95.41
2016-04-11T00:35:21.310Z,96.17
2016-04-11T00:36:21.436Z,95.51
2016-04-11T00:37:20.689Z,95.51
2016-04-11T00:38:20.646Z,95.6
2016-04-11T00:39:20.602Z,95.31
2016-04-11T00:40:20.510Z,95.22
2016-04-11T00:41:20.466Z,95.51
2016-04-11T00:42:20.468Z,95.51
2016-04-11T00:43:20.346Z,95.7
2016-04-11T00:44:20.287Z,95.89
2016-04-11T00:45:20.258Z,95.6
2016-04-11T00:46:20.182Z,95.79
2016-04-11T00:47:20.138Z,95.89
2016-04-11T00:48:20.079Z,95.22
2016-04-11T00:49:20.035Z,95.22
2016-04-11T00:50:19.974Z,95.51
2016-04-11T00:51:19.915Z,95.89
2016-04-11T00:52:19.871Z,95.41
2016-04-11T00:53:19.812Z,95.22
2016-04-11T00:54:19.751Z,95.41
2016-04-11T00:55:19.707Z,95.51
2016-04-11T00:56:19.631Z,95.7
2016-04-11T00:57:19.603Z,95.6
2016-04-11T00:58:19.543Z,96.08
2016-04-11T00:59:19.483Z,95.89
2016-04-11T01:00:19.455Z,96.22
2016-04-11T01:01:19.379Z,96.45
2016-04-11T01:02:19.319Z,95.89
2016-04-11T01:03:19.275Z,95.7
2016-04-11T01:04:19.199Z,95.79
2016-04-11T01:05:19.155Z,96.08
2016-04-11T01:06:19.096Z,96.55
2016-04-11T01:07:19.036Z,96.55
2016-04-11T01:08:18.992Z,96.45
2016-04-11T01:09:18.933Z,95.98
2016-04-11T01:10:18.877Z,96.36
2016-04-11T01:11:18.833Z,96.45
2016-04-11T01:12:18.773Z,96.5
2016-04-11T01:13:18.713Z,96.78
2016-04-11T01:14:18.654Z,96.69
2016-04-11T01:15:18.640Z,96.26
2016-04-11T01:16:18.535Z,96.64
2016-04-11T01:17:18.490Z,96.26
2016-04-11T01:18:18.446Z,96.45
2016-04-11T01:19:18.385Z,96.03
2016-04-11T01:20:18.342Z,96.26
2016-04-11T01:21:18.266Z,96.5
2016-04-11T01:22:18.222Z,96.97
2016-04-11T01:23:18.178Z,97.26
2016-04-11T01:24:18.102Z,96.69
2016-04-11T01:25:18.058Z,96.03
2016-04-11T01:26:17.998Z,95.84
2016-04-11T01:27:17.939Z,96.12
2016-04-11T01:28:17.894Z,96.22
2016-04-11T01:29:17.834Z,96.5
2016-04-11T01:30:17.775Z,96.36
2016-04-11T01:31:17.714Z,96.22
2016-04-11T01:32:17.670Z,96.12
2016-04-11T01:33:17.611Z,96.31
2016-04-11T01:34:17.567Z,96.5
2016-04-11T01:35:17.522Z,96.22
2016-04-11T01:36:17.447Z,96.5
2016-04-11T01:37:17.387Z,96.69
2016-04-11T01:38:17.343Z,97.17
2016-04-11T01:39:17.283Z,97.36
2016-04-11T01:40:17.223Z,96.97
2016-04-11T01:41:17.180Z,96.83
2016-04-11T01:42:17.119Z,96.31
2016-04-11T01:43:17.060Z,96.17
2016-04-11T01:44:17.015Z,96.5
2016-04-11T01:45:16.971Z,96.78
2016-04-11T01:46:16.896Z,96.97
2016-04-11T01:47:16.852Z,96.78
2016-04-11T01:48:16.792Z,96.69
2016-04-11T01:49:16.732Z,97.26
2016-04-11T01:50:16.687Z,96.69
2016-04-11T01:51:16.612Z,96.41
2016-04-11T01:52:16.568Z,96.31
2016-04-11T01:53:16.509Z,96.03
2016-04-11T01:54:16.449Z,96.41
2016-04-11T01:55:16.420Z,96.78
2016-04-11T01:56:16.360Z,97.26
2016-04-11T01:57:16.316Z,96.97
2016-04-11T01:58:16.084Z,96.78
2016-04-11T01:59:16.181Z,96.78
2016-04-11T02:00:16.120Z,96.97
2016-04-11T02:01:16.092Z,97.55
2016-04-11T02:02:16.000Z,97.5
2016-04-11T02:03:15.972Z,97.45
2016-04-11T02:04:15.913Z,96.97
2016-04-11T02:05:15.838Z,96.97
2016-04-11T02:06:15.793Z,97.17
2016-04-11T02:07:15.000Z,97.36
2016-04-11T02:08:15.689Z,97.12
2016-04-11T02:09:15.630Z,96.97
2016-04-11T02:10:15.569Z,97.45
2016-04-11T02:11:15.525Z,97.31
2016-04-11T02:12:15.482Z,97.83
2016-04-11T02:13:15.405Z,97.45
2016-04-11T02:14:15.362Z,97.45
2016-04-11T02:15:15.301Z,97.55
2016-04-11T02:16:15.243Z,97.5
2016-04-11T02:17:15.182Z,97.31
2016-04-11T02:18:15.123Z,97.4
2016-04-11T02:19:15.062Z,97.69
2016-04-11T02:20:15.019Z,97.88
2016-04-11T02:21:14.974Z,98.82
2016-04-11T02:22:14.898Z,98.25
2016-04-11T02:23:14.854Z,98.07
2016-04-11T02:24:14.795Z,97.59
2016-04-11T02:25:14.735Z,97.88
2016-04-11T02:26:14.690Z,98.63
2016-04-11T02:27:14.490Z,98.16
2016-04-11T02:28:14.570Z,98.07
2016-04-11T02:29:14.527Z,97.97
2016-04-11T02:30:14.467Z,98.25
2016-04-11T02:31:14.408Z,98.35
2016-04-11T02:32:14.378Z,98.63
2016-04-11T02:33:14.304Z,98.44
2016-04-11T02:34:14.228Z,98.73
2016-04-11T02:35:14.184Z,98.63
2016-04-11T02:36:14.124Z,98.44
2016-04-11T02:37:14.064Z,98.82
2016-04-11T02:38:14.020Z,98.73
2016-04-11T02:39:13.976Z,98.63
2016-04-11T02:40:13.916Z,98.16
2016-04-11T02:41:13.856Z,98.73
2016-04-11T02:42:13.952Z,98.82
2016-04-11T02:43:13.752Z,98.82
2016-04-11T02:44:13.692Z,99.99
2016-04-11T02:45:13.632Z,99.96
2016-04-11T02:46:13.588Z,99.87
2016-04-11T02:47:13.513Z,99.99
2016-04-11T02:48:13.469Z,99.63
2016-04-11T02:49:13.409Z,99.91
2016-04-11T02:50:13.348Z,99.99
2016-04-11T02:51:13.289Z,99.99
2016-04-11T02:52:13.245Z,99.99
2016-04-11T02:53:13.185Z,99.99
2016-04-11T02:54:13.125Z,99.99
2016-04-11T02:55:13.065Z,99.82
2016-04-11T02:56:13.036Z,99.63
2016-04-11T02:57:12.259Z,99.99
2016-04-11T02:58:12.901Z,99.99
2016-04-11T02:59:12.842Z,99.99
2016-04-11T03:00:12.798Z,99.99
2016-04-11T03:01:12.739Z,99.99
2016-04-11T03:02:12.725Z,99.99
2016-04-11T03:03:12.633Z,99.99
2016-04-11T03:04:12.574Z,99.99
2016-04-11T03:05:12.514Z,99.99
2016-04-11T03:06:12.470Z,99.99
2016-04-11T03:07:12.394Z,99.99
2016-04-11T03:08:12.335Z,99.99
2016-04-11T03:09:12.290Z,99.99
2016-04-11T03:10:12.230Z,99.99
2016-04-11T03:11:12.186Z,99.99
2016-04-11T03:12:12.158Z,99.99
2016-04-11T03:13:12.051Z,99.99
2016-04-11T03:14:12.008Z,99.99
2016-04-11T03:15:11.947Z,99.99
2016-04-11T03:16:11.888Z,99.99
2016-04-11T03:17:11.843Z,99.99
2016-04-11T03:18:11.799Z,99.99
2016-04-11T03:19:11.724Z,99.99
2016-04-11T03:20:11.664Z,99.99
2016-04-11T03:21:11.620Z,99.99
2016-04-11T03:22:11.560Z,99.99
2016-04-11T03:23:11.500Z,99.99
2016-04-11T03:24:11.440Z,99.99
2016-04-11T03:25:11.381Z,99.99
2016-04-11T03:26:11.336Z,99.99
2016-04-11T03:27:11.276Z,99.99
2016-04-11T03:28:11.232Z,99.99
2016-04-11T03:29:11.157Z,99.99
2016-04-11T03:30:11.112Z,99.99
2016-04-11T03:31:11.037Z,99.99
2016-04-11T03:32:10.992Z,99.99
2016-04-11T03:33:10.949Z,99.99
2016-04-11T03:34:10.889Z,99.99
2016-04-11T03:35:10.830Z,99.99
2016-04-11T03:36:10.769Z,99.99
2016-04-11T03:37:10.725Z,99.99
2016-04-11T03:38:10.680Z,99.99
2016-04-11T03:39:10.606Z,99.99
2016-04-11T03:40:10.561Z,99.99
2016-04-11T03:41:10.486Z,99.99
2016-04-11T03:42:10.427Z,99.99
2016-04-11T03:43:10.383Z,99.99
2016-04-11T03:44:10.322Z,99.99
2016-04-11T03:45:10.278Z,99.99
2016-04-11T03:46:10.202Z,99.99
2016-04-11T03:47:10.158Z,99.99
2016-04-11T03:48:10.099Z,99.99
2016-04-11T03:49:10.039Z,99.99
2016-04-11T03:50:09.979Z,99.99
2016-04-11T03:51:09.935Z,99.99
2016-04-11T03:52:09.875Z,99.99
2016-04-11T03:53:09.815Z,99.99
2016-04-11T03:54:09.771Z,99.99
2016-04-11T03:55:09.711Z,99.99
2016-04-11T03:56:09.651Z,99.99
2016-04-11T03:57:09.592Z,99.99
2016-04-11T03:58:09.532Z,99.99
2016-04-11T03:59:09.487Z,99.99
2016-04-11T04:00:09.412Z,99.99
2016-04-11T04:01:09.367Z,99.99
2016-04-11T04:02:09.309Z,99.99
2016-04-11T04:03:09.248Z,99.99
2016-04-11T04:04:09.204Z,99.99
2016-04-11T04:05:09.144Z,99.99
2016-04-11T04:06:09.084Z,99.99
2016-04-11T04:07:09.024Z,99.99
2016-04-11T04:08:08.965Z,99.99
2016-04-11T04:09:08.921Z,99.99
2016-04-11T04:10:08.861Z,99.99
2016-04-11T04:11:08.801Z,99.99
2016-04-11T04:12:08.758Z,99.99
2016-04-11T04:13:08.682Z,99.99
2016-04-11T04:14:08.622Z,99.99
2016-04-11T04:15:08.577Z,99.99
2016-04-11T04:16:08.518Z,99.99
2016-04-11T04:17:08.458Z,99.99
2016-04-11T04:18:08.414Z,99.99
2016-04-11T04:19:08.354Z,99.99
2016-04-11T04:20:08.294Z,99.99
2016-04-11T04:21:08.249Z,99.99
2016-04-11T04:22:08.174Z,99.99
2016-04-11T04:23:08.130Z,99.99
2016-04-11T04:24:08.104Z,99.99
2016-04-11T04:25:08.103Z,99.99
2016-04-11T04:26:08.088Z,99.99
2016-04-11T04:27:08.071Z,99.99
2016-04-11T04:28:08.056Z,99.99
2016-04-11T04:29:08.018Z,99.99
2016-04-11T04:30:07.974Z,99.99
2016-04-11T04:31:07.945Z,99.99
2016-04-11T04:32:07.902Z,99.99
2016-04-11T04:33:07.858Z,99.99
2016-04-11T04:34:07.821Z,99.99
2016-04-11T04:35:07.766Z,99.99
2016-04-11T04:36:07.713Z,99.99
2016-04-11T04:37:07.659Z,99.99
2016-04-11T04:38:07.605Z,99.99
2016-04-11T04:39:07.548Z,99.99
2016-04-11T04:40:07.505Z,99.99
2016-04-11T04:41:07.432Z,99.99
2016-04-11T04:42:07.390Z,99.99
2016-04-11T04:43:07.332Z,99.99
2016-04-11T04:44:07.289Z,99.99
2016-04-11T04:45:07.214Z,99.99
2016-04-11T04:46:07.170Z,99.99
2016-04-11T04:47:07.112Z,99.99
2016-04-11T04:48:07.053Z,99.99
2016-04-11T04:49:07.009Z,99.99
2016-04-11T04:50:06.934Z,99.99
2016-04-11T04:51:06.875Z,99.99
2016-04-11T04:52:06.846Z,99.99
2016-04-11T04:53:06.771Z,99.99
2016-04-11T04:54:06.712Z,99.99
2016-04-11T04:55:06.651Z,99.99
2016-04-11T04:56:06.623Z,99.99
2016-04-11T04:57:06.548Z,99.99
2016-04-11T04:58:06.488Z,99.99
2016-04-11T04:59:06.428Z,99.99
2016-04-11T05:00:06.368Z,99.99
2016-04-11T05:01:06.323Z,99.99
2016-04-11T05:02:06.265Z,99.99
2016-04-11T05:03:06.204Z,99.99
2016-04-11T05:04:06.145Z,99.99
2016-04-11T05:05:06.085Z,99.99
2016-04-11T05:06:06.041Z,99.99
2016-04-11T05:07:05.981Z,99.99
2016-04-11T05:08:05.936Z,99.99
2016-04-11T05:09:05.861Z,99.99
2016-04-11T05:10:05.817Z,99.99
2016-04-11T05:11:05.758Z,99.99
2016-04-11T05:12:05.697Z,99.99
2016-04-11T05:13:05.638Z,99.99
2016-04-11T05:14:05.593Z,99.99
2016-04-11T05:15:05.533Z,99.99
2016-04-11T05:16:05.474Z,99.99
2016-04-11T05:17:05.430Z,99.99
2016-04-11T05:18:05.354Z,99.99
2016-04-11T05:19:05.310Z,99.99
2016-04-11T05:20:05.250Z,99.99
2016-04-11T05:21:05.190Z,99.99
2016-04-11T05:22:05.146Z,99.99
2016-04-11T05:23:05.071Z,99.99
2016-04-11T05:24:05.026Z,99.99
2016-04-11T05:25:04.967Z,99.99
2016-04-11T05:26:04.907Z,99.99
2016-04-11T05:27:04.863Z,99.99
2016-04-11T05:28:04.804Z,99.99
2016-04-11T05:29:04.743Z,99.99
2016-04-11T05:30:04.684Z,99.99
2016-04-11T05:31:04.639Z,99.99
2016-04-11T05:32:04.579Z,99.99
2016-04-11T05:33:04.535Z,99.99
2016-04-11T05:34:04.459Z,99.99
2016-04-11T05:35:04.415Z,99.99
2016-04-11T05:36:04.372Z,99.99
2016-04-11T05:37:04.311Z,99.99
2016-04-11T05:38:04.236Z,99.99
2016-04-11T05:39:04.189Z,99.99
2016-04-11T05:40:04.130Z,99.99
2016-04-11T05:41:04.069Z,99.99
2016-04-11T05:42:04.025Z,99.99
2016-04-11T05:43:03.967Z,99.99
2016-04-11T05:44:03.906Z,99.99
2016-04-11T05:45:03.878Z,99.99
2016-04-11T05:46:03.786Z,99.99
2016-04-11T05:47:03.727Z,99.99
2016-04-11T05:48:03.698Z,99.99
2016-04-11T05:49:03.622Z,99.73
2016-04-11T05:50:03.563Z,99.99
2016-04-11T05:51:03.518Z,99.73
2016-04-11T05:52:03.458Z,99.82
2016-04-11T05:53:03.415Z,99.99
2016-04-11T05:54:03.355Z,99.44
2016-04-11T05:55:03.295Z,99.16
2016-04-11T05:56:03.235Z,99.35
2016-04-11T05:57:03.176Z,99.06
2016-04-11T05:58:03.116Z,98.97
2016-04-11T05:59:03.071Z,99.06
2016-04-11T06:00:03.012Z,98.73
2016-04-11T06:01:02.952Z,98.87
2016-04-11T06:02:02.907Z,98.54
2016-04-11T06:03:02.848Z,98.97
2016-04-11T06:04:02.787Z,98.35
2016-04-11T06:05:02.743Z,99.11
2016-04-11T06:06:02.684Z,98.73
2016-04-11T06:07:02.640Z,99.99
2016-04-11T06:08:02.580Z,99.99
2016-04-11T06:09:02.521Z,99.99
2016-04-11T06:10:02.460Z,99.99
2016-04-11T06:11:02.400Z,99.99
2016-04-11T06:12:02.356Z,99.99
2016-04-11T06:13:02.312Z,99.97
2016-04-11T06:14:02.236Z,99.99
2016-04-11T06:15:02.177Z,99.99
2016-04-11T06:16:02.133Z,99.99
2016-04-11T06:17:02.073Z,99.87
2016-04-11T06:18:02.014Z,99.99
2016-04-11T06:19:01.969Z,99.99
2016-04-11T06:20:01.924Z,99.99
2016-04-11T06:21:01.850Z,99.99
2016-04-11T06:22:01.789Z,99.99
2016-04-11T06:23:01.729Z,99.99
2016-04-11T06:24:01.686Z,99.99
2016-04-11T06:25:01.626Z,99.99
2016-04-11T06:26:01.582Z,99.99
2016-04-11T06:27:01.507Z,99.99
2016-04-11T06:28:01.462Z,99.99
2016-04-11T06:29:01.402Z,99.99
2016-04-11T06:30:01.343Z,99.99
2016-04-11T06:31:01.298Z,99.99
2016-04-11T06:32:01.238Z,99.97
2016-04-11T06:33:01.179Z,99.99
2016-04-11T06:34:01.119Z,99.99
2016-04-11T06:35:01.074Z,99.99
2016-04-11T06:36:00.998Z,99.77
2016-04-11T06:37:00.955Z,99.99
2016-04-11T06:38:00.895Z,99.99
2016-04-11T06:39:00.834Z,99.99
2016-04-11T06:40:00.792Z,99.99
2016-04-11T06:41:00.731Z,99.99
2016-04-11T06:42:00.672Z,99.99
2016-04-11T06:43:00.534Z,99.99
2016-04-11T06:44:00.567Z,99.87
2016-04-11T06:45:00.508Z,99.97
2016-04-11T06:46:00.448Z,99.77
2016-04-11T06:47:00.403Z,99.99
2016-04-11T06:48:00.344Z,99.99
2016-04-11T06:49:00.284Z,99.99
2016-04-11T06:50:00.225Z,99.77
2016-04-11T06:51:00.196Z,99.99
2016-04-11T06:52:00.119Z,99.68
2016-04-11T06:53:00.061Z,99.99
2016-04-11T06:54:00.016Z,99.44
2016-04-11T06:54:59.956Z,99.21
2016-04-11T06:55:59.897Z,99.4
2016-04-11T06:56:59.837Z,99.97
2016-04-11T06:57:59.793Z,99.68
2016-04-11T06:58:59.733Z,99.99
2016-04-11T06:59:59.673Z,99.49
2016-04-11T07:00:59.629Z,99.97
2016-04-11T07:01:59.568Z,99.97
2016-04-11T07:02:59.509Z,99.21
2016-04-11T07:03:59.449Z,99.64
2016-04-11T07:04:59.390Z,99.35
2016-04-11T07:05:59.346Z,99.54
2016-04-11T07:06:59.301Z,99.07
2016-04-11T07:07:59.226Z,98.59
2016-04-11T07:08:59.182Z,99.07
2016-04-11T07:09:59.122Z,98.79
2016-04-11T07:10:59.078Z,98.88
2016-04-11T07:11:59.002Z,99.26
2016-04-11T07:12:59.083Z,99.07
2016-04-11T07:13:58.929Z,99.07
2016-04-11T07:14:58.853Z,99.26
2016-04-11T07:15:58.794Z,99.35
2016-04-11T07:16:58.734Z,98.88
2016-04-11T07:17:58.675Z,99.64
2016-04-11T07:18:58.631Z,99.4
2016-04-11T07:19:58.586Z,99.16
2016-04-11T07:20:58.527Z,98.88
2016-04-11T07:21:58.466Z,98.88
2016-04-11T07:22:58.407Z,98.79
2016-04-11T07:23:58.363Z,98.79
2016-04-11T07:24:58.304Z,99.64
2016-04-11T07:25:58.245Z,99.16
2016-04-11T07:26:58.185Z,98.79
2016-04-11T07:27:58.157Z,98.5
2016-04-11T07:28:58.081Z,98.88
2016-04-11T07:29:58.021Z,98.31
2016-04-11T07:30:57.961Z,98.88
2016-04-11T07:31:57.917Z,99.73
2016-04-11T07:32:57.858Z,98.79
2016-04-11T07:33:57.813Z,98.5
2016-04-11T07:34:57.753Z,98.31
2016-04-11T07:35:57.709Z,98.36
2016-04-11T07:36:57.665Z,98.17
2016-04-11T07:37:57.589Z,97.6
2016-04-11T07:38:57.530Z,97.22
2016-04-11T07:39:57.486Z,97.22
2016-04-11T07:40:57.426Z,97.22
2016-04-11T07:41:57.366Z,96.65
2016-04-11T07:42:57.322Z,98.59
2016-04-11T07:43:57.262Z,98.02
2016-04-11T07:44:57.202Z,97.45
2016-04-11T07:45:57.142Z,96.45
2016-04-11T07:46:57.083Z,96.17
2016-04-11T07:47:57.054Z,96.45
2016-04-11T07:48:56.979Z,96.45
2016-04-11T07:49:56.935Z,96.45
2016-04-11T07:50:56.875Z,95.89
2016-04-11T07:51:56.830Z,96.36
2016-04-11T07:52:56.770Z,96.74
2016-04-11T07:53:56.711Z,97.88
2016-04-11T07:54:56.666Z,97.12
2016-04-11T07:55:56.591Z,96.65
2016-04-11T07:56:56.547Z,96.36
2016-04-11T07:57:56.409Z,96.03
2016-04-11T07:58:56.427Z,96.36
2016-04-11T07:59:56.383Z,96.36
2016-04-11T08:00:56.323Z,95.79
2016-04-11T08:01:56.279Z,95.41
2016-04-11T08:02:56.220Z,95.75
2016-04-11T08:03:56.176Z,95.51
2016-04-11T08:04:56.100Z,96.17
2016-04-11T08:05:56.056Z,96.55
2016-04-11T08:06:55.995Z,96.36
2016-04-11T08:07:55.951Z,96.65
2016-04-11T08:08:55.881Z,95.6
2016-04-11T08:09:55.852Z,95.27
2016-04-11T08:10:55.793Z,95.17
2016-04-11T08:11:55.733Z,95.17
2016-04-11T08:12:55.672Z,95.36
2016-04-11T08:13:55.613Z,95.79
2016-04-11T08:14:55.553Z,95.6
2016-04-11T08:15:55.509Z,95.94
2016-04-11T08:16:55.449Z,95.84
2016-04-11T08:17:55.394Z,95.46
2016-04-11T08:18:55.350Z,95.08
2016-04-11T08:19:55.306Z,95.27
2016-04-11T08:20:55.231Z,95.17
2016-04-11T08:21:55.187Z,94.6
2016-04-11T08:22:55.126Z,94.42
2016-04-11T08:23:55.082Z,94.79
2016-04-11T08:24:55.022Z,95.27
2016-04-11T08:25:54.963Z,95.17
2016-04-11T08:26:54.903Z,94.98
2016-04-11T08:27:54.859Z,95.17
2016-04-11T08:28:54.799Z,95.17
2016-04-11T08:29:54.754Z,94.27
2016-04-11T08:30:54.679Z,93.41
2016-04-11T08:31:54.651Z,93.79
2016-04-11T08:32:54.576Z,94.93
2016-04-11T08:33:54.547Z,94.79
2016-04-11T08:34:54.487Z,94.7
2016-04-11T08:35:54.428Z,94.32
2016-04-11T08:36:54.367Z,94.51
2016-04-11T08:37:54.323Z,94.79
2016-04-11T08:38:54.279Z,94.98
2016-04-11T08:39:54.219Z,94.65
2016-04-11T08:40:54.363Z,94.32
2016-04-11T08:41:54.100Z,93.41
2016-04-11T08:42:54.055Z,92.27
2016-04-11T08:43:53.996Z,91.99
2016-04-11T08:44:53.936Z,92.41
2016-04-11T08:45:53.876Z,91.56
2016-04-11T08:46:53.832Z,91.56
2016-04-11T08:47:53.772Z,90.99
2016-04-11T08:48:53.727Z,90.8
2016-04-11T08:49:53.668Z,90.61
2016-04-11T08:50:53.608Z,89.51
2016-04-11T08:51:53.580Z,87.89
2016-04-11T08:52:53.504Z,87.07
2016-04-11T08:53:53.443Z,86.79
2016-04-11T08:54:53.401Z,86.12
2016-04-11T08:55:53.371Z,85.69
2016-04-11T08:56:53.296Z,86.07
2016-04-11T08:57:53.251Z,87.36
2016-04-11T08:58:53.207Z,87.41
2016-04-11T08:59:53.132Z,87.7
2016-04-11T09:00:53.072Z,87.65
2016-04-11T09:01:53.029Z,87.41
2016-04-11T09:02:52.968Z,87.79
2016-04-11T09:03:52.925Z,88.22
2016-04-11T09:04:52.880Z,87.36
2016-04-11T09:05:52.836Z,87.27
2016-04-11T09:06:52.761Z,86.41
2016-04-11T09:07:52.700Z,86.45
2016-04-11T09:08:52.656Z,85.31
2016-04-11T09:09:52.628Z,84.59
2016-04-11T09:10:52.553Z,84.01
2016-04-11T09:11:52.508Z,83.64
2016-04-11T09:12:52.464Z,83.44
2016-04-11T09:13:52.467Z,83.06
2016-04-11T09:14:52.485Z,82.97
2016-04-11T09:15:52.300Z,82.78
2016-04-11T09:16:52.241Z,82.59
2016-04-11T09:17:52.196Z,82.72
2016-04-11T09:18:52.136Z,82.59
2016-04-11T09:19:52.093Z,81.96
2016-04-11T09:20:52.032Z,81.77
2016-04-11T09:21:51.988Z,81.1
2016-04-11T09:22:51.944Z,80.81
2016-04-11T09:23:51.885Z,81.01
2016-04-11T09:24:51.824Z,80.57
2016-04-11T09:25:51.780Z,80.28
2016-04-11T09:26:51.737Z,80.43
2016-04-11T09:27:51.676Z,81.24
2016-04-11T09:28:51.632Z,80.57
2016-04-11T09:29:51.573Z,79.9
2016-04-11T09:30:51.544Z,78.99
2016-04-11T09:31:51.500Z,79.14
2016-04-11T09:32:51.424Z,78.94
2016-04-11T09:33:51.380Z,79.14
2016-04-11T09:34:51.320Z,77.84
2016-04-11T09:35:51.261Z,78.79
2016-04-11T09:36:51.217Z,78.79
2016-04-11T09:37:51.172Z,77.65
2016-04-11T09:38:51.128Z,78.13
2016-04-11T09:39:51.068Z,78.89
2016-04-11T09:40:51.039Z,77.65
2016-04-11T09:41:51.011Z,77.21
2016-04-11T09:42:50.935Z,76.64
2016-04-11T09:43:50.876Z,76.64
2016-04-11T09:44:50.816Z,76.73
2016-04-11T09:45:50.771Z,76.82
2016-04-11T09:46:50.711Z,75.71
2016-04-11T09:47:50.652Z,75.52
2016-04-11T09:48:50.592Z,75.43
2016-04-11T09:49:50.564Z,75.43
2016-04-11T09:50:50.504Z,75.27
2016-04-11T09:51:50.460Z,73.94
2016-04-11T09:52:50.400Z,74.7
2016-04-11T09:53:50.355Z,74.22
2016-04-11T09:54:50.312Z,74.22
2016-04-11T09:55:50.251Z,74.55
2016-04-11T09:56:50.208Z,73.59
2016-04-11T09:57:50.163Z,72.63
2016-04-11T09:58:50.118Z,73.65
2016-04-11T09:59:50.043Z,73.55
2016-04-11T10:00:50.015Z,73.21
2016-04-11T10:01:49.956Z,73.3
2016-04-11T10:02:49.911Z,72.86
2016-04-11T10:03:49.867Z,71.71
2016-04-11T10:04:49.822Z,71.58
2016-04-11T10:05:49.763Z,72
2016-04-11T10:06:49.703Z,70.56
2016-04-11T10:07:49.659Z,69.6
2016-04-11T10:08:49.614Z,70.37
2016-04-11T10:09:49.571Z,70.37
2016-04-11T10:10:49.511Z,70.03
2016-04-11T10:11:49.467Z,70.5
2016-04-11T10:12:49.406Z,70.21
2016-04-11T10:13:49.363Z,68.87
2016-04-11T10:14:49.318Z,68.97
2016-04-11T10:15:49.289Z,68.11
2016-04-11T10:16:49.230Z,68.17
2016-04-11T10:17:49.169Z,68.49
2016-04-11T10:18:49.141Z,69.03
2016-04-11T10:19:49.082Z,68.87
2016-04-11T10:20:49.022Z,68.78
2016-04-11T10:21:48.977Z,68.62
2016-04-11T10:22:48.918Z,66.51
2016-04-11T10:23:48.905Z,66.77
2016-04-11T10:24:48.829Z,67.57
2016-04-11T10:25:48.785Z,67.85
2016-04-11T10:26:48.741Z,67.76
2016-04-11T10:27:48.681Z,66.99
2016-04-11T10:28:48.638Z,66.26
2016-04-11T10:29:48.577Z,67.66
2016-04-11T10:30:48.549Z,67.09
2016-04-11T10:31:48.504Z,66.32
2016-04-11T10:32:48.460Z,66.42
2016-04-11T10:33:48.401Z,65.2
2016-04-11T10:34:48.341Z,65.88
2016-04-11T10:35:48.312Z,66.35
2016-04-11T10:36:48.237Z,66.26
2016-04-11T10:37:48.192Z,65.78
2016-04-11T10:38:48.148Z,65.33
2016-04-11T10:39:48.104Z,65.23
2016-04-11T10:40:48.061Z,65.43
2016-04-11T10:41:48.000Z,65.23
2016-04-11T10:42:47.956Z,65.46
2016-04-11T10:43:47.928Z,64.89
2016-04-11T10:44:47.867Z,64.98
2016-04-11T10:45:47.824Z,62.96
2016-04-11T10:46:47.764Z,63.25
2016-04-11T10:47:47.735Z,62.77
2016-04-11T10:48:47.707Z,62.48
2016-04-11T10:49:47.631Z,62.61
2016-04-11T10:50:47.587Z,63.28
2016-04-11T10:51:47.527Z,63.67
2016-04-11T10:52:47.483Z,62.32
2016-04-11T10:53:47.424Z,62.42
2016-04-11T10:54:47.394Z,61.65
2016-04-11T10:55:47.366Z,61.55
2016-04-11T10:56:47.290Z,62.23
2016-04-11T10:57:47.247Z,62.04
2016-04-11T10:58:47.265Z,61.68
2016-04-11T10:59:47.158Z,61.49
2016-04-11T11:00:47.114Z,60.53
2016-04-11T11:01:47.054Z,60.53
2016-04-11T11:02:47.025Z,60.43
2016-04-11T11:03:46.966Z,60.63
2016-04-11T11:04:46.813Z,60.24
2016-04-11T11:05:46.878Z,60.66
2016-04-11T11:06:46.833Z,60.75
2016-04-11T11:07:46.789Z,59.6
2016-04-11T11:08:46.728Z,59.41
2016-04-11T11:09:46.685Z,58.35
2016-04-11T11:10:46.642Z,59.12
2016-04-11T11:11:46.597Z,58.18
2016-04-11T11:12:46.552Z,59.22
2016-04-11T11:13:46.509Z,58.92
2016-04-11T11:14:46.448Z,58.35
2016-04-11T11:15:46.420Z,58.06
2016-04-11T11:16:46.360Z,58.35
2016-04-11T11:17:46.332Z,58.92
2016-04-11T11:18:46.272Z,59.12
2016-04-11T11:19:46.243Z,58.83
2016-04-11T11:20:46.199Z,58.37
2016-04-11T11:21:46.139Z,57.51
2016-04-11T11:22:46.094Z,57.99
2016-04-11T11:23:46.035Z,59.34
2016-04-11T11:24:45.991Z,57.6
2016-04-11T11:25:45.947Z,57.51
2016-04-11T11:26:45.902Z,57.6
2016-04-11T11:27:45.874Z,58.54
2016-04-11T11:28:45.815Z,58.95
2016-04-11T11:29:45.755Z,58.99
2016-04-11T11:30:45.726Z,58.15
2016-04-11T11:31:45.666Z,58.7
2016-04-11T11:32:45.621Z,59.69
2016-04-11T11:33:45.562Z,59.02
2016-04-11T11:34:45.533Z,58.92
2016-04-11T11:35:45.489Z,58.95
2016-04-11T11:36:45.461Z,57.32
2016-04-11T11:37:45.385Z,56.96
2016-04-11T11:38:45.342Z,57.45
2016-04-11T11:39:45.297Z,57.25
2016-04-11T11:40:45.253Z,56.9
2016-04-11T11:41:45.209Z,56.41
2016-04-11T11:42:45.164Z,57.06
2016-04-11T11:43:45.105Z,57.32
2016-04-11T11:44:45.092Z,57.25
2016-04-11T11:45:45.017Z,56.77
2016-04-11T11:46:44.972Z,56.38
2016-04-11T11:47:44.928Z,55.33
2016-04-11T11:48:44.900Z,56.1
2016-04-11T11:49:44.839Z,56.77
2016-04-11T11:50:44.795Z,57.73
2016-04-11T11:51:44.735Z,56.77
2016-04-11T11:52:44.692Z,56.41
2016-04-11T11:53:44.678Z,56.41
2016-04-11T11:54:44.635Z,56.03
2016-04-11T11:55:44.558Z,56.84
2016-04-11T11:56:44.515Z,57.03
2016-04-11T11:57:44.471Z,55.9
2016-04-11T11:58:44.426Z,55.68
2016-04-11T11:59:44.382Z,56.36
2016-04-11T12:00:44.321Z,57.25
2016-04-11T12:01:44.279Z,57.51
2016-04-11T12:02:44.249Z,57.64
2016-04-11T12:03:44.189Z,57.54
2016-04-11T12:04:44.146Z,55.65
2016-04-11T12:05:44.102Z,55.45
2016-04-11T12:06:44.057Z,56.2
2016-04-11T12:07:44.012Z,55.83
2016-04-11T12:08:43.954Z,56.12
2016-04-11T12:09:43.908Z,55.74
2016-04-11T12:10:43.865Z,55.74
2016-04-11T12:11:43.836Z,55.83
2016-04-11T12:12:43.776Z,56.22
2016-04-11T12:13:43.732Z,56.44
2016-04-11T12:14:43.704Z,55.48
2016-04-11T12:15:43.644Z,54.32
2016-04-11T12:16:43.599Z,54.2
2016-04-11T12:17:43.556Z,55.45
2016-04-11T12:18:43.542Z,56.1
2016-04-11T12:19:43.467Z,55.83
2016-04-11T12:20:43.422Z,54.9
2016-04-11T12:21:43.378Z,55.38
2016-04-11T12:22:43.319Z,55.67
2016-04-11T12:23:43.291Z,55.87
2016-04-11T12:24:43.261Z,55
2016-04-11T12:25:43.202Z,54.68
2016-04-11T12:26:43.174Z,55.43
2016-04-11T12:27:43.098Z,55.45
2016-04-11T12:28:43.069Z,54.39
2016-04-11T12:29:43.024Z,55.45
2016-04-11T12:30:42.966Z,55.43
2016-04-11T12:31:42.905Z,55.83
2016-04-11T12:32:42.893Z,55.65
2016-04-11T12:33:42.848Z,55.45
2016-04-11T12:34:42.788Z,55.16
2016-04-11T12:35:42.745Z,55.43
2016-04-11T12:36:42.700Z,56.74
2016-04-11T12:37:42.640Z,56.29
2016-04-11T12:38:42.596Z,56.96
2016-04-11T12:39:42.552Z,56.87
2016-04-11T12:40:42.509Z,55.55
2016-04-11T12:41:42.464Z,54.68
2016-04-11T12:42:42.434Z,54.94
2016-04-11T12:43:42.391Z,55.43
2016-04-11T12:44:42.315Z,55.35
2016-04-11T12:45:42.272Z,55.83
2016-04-11T12:46:42.242Z,55.96
2016-04-11T12:47:42.198Z,55.48
2016-04-11T12:48:42.154Z,54.42
2016-04-11T12:49:42.095Z,55.43
2016-04-11T12:50:42.051Z,55.88
2016-04-11T12:51:42.022Z,55.88
2016-04-11T12:52:41.978Z,56.71
2016-04-11T12:53:41.918Z,57.03